Flight Track Log - Related Links

Times and Time Zones

All times are in EDT time to prevent confusion due to time zone crossing. See the TAM3120 flight status page for this flight to view local times or setup timezone preferences in your user account.

Time Position Orientation Groundspeed Altitude Reporting Facility
EDT Latitude Longitude Course Direction KTS MPH feet Rate Location/Type
Sun 11:59:38 AM -26.6450 -48.4640 29° Northeast 326 375 11,100  Level FlightAware ADS-B
Sun 12:00:18 PM -26.5870 -48.4270 30° Northeast 374 430 12,100 2,053 Climbing FlightAware ADS-B
Sun 12:00:54 PM -26.5340 -48.3930 30° Northeast 386 444 13,700 2,364 Climbing FlightAware ADS-B
Sun 12:01:24 PM -26.4860 -48.3630 29° Northeast 401 461 14,700 2,240 Climbing FlightAware ADS-B
Sun 12:02:09 PM -26.4120 -48.3150 30° Northeast 413 475 16,500 2,308 Climbing FlightAware ADS-B
Sun 12:02:42 PM -26.3560 -48.2800 29° Northeast 425 489 17,700 2,123 Climbing FlightAware ADS-B
Sun 12:03:14 PM -26.2990 -48.2440 30° Northeast 434 499 18,800 2,000 Climbing FlightAware ADS-B
Sun 12:03:57 PM -26.2240 -48.1960 30° Northeast 448 516 20,200 2,071 Climbing FlightAware ADS-B
Sun 12:04:38 PM -26.1490 -48.1490 29° Northeast 456 525 21,700 2,132 Climbing FlightAware ADS-B
Sun 12:05:13 PM -26.0830 -48.1070 30° Northeast 461 531 22,900 2,523 Climbing FlightAware ADS-B
Sun 12:06:25 PM -25.9570 -48.0240 31° Northeast 447 514 26,200 2,686 Climbing FlightAware ADS-B
Sun 12:06:58 PM -25.9030 -47.9750 39° Northeast 443 510 27,600 2,143 Climbing FlightAware ADS-B
Sun 12:07:35 PM -25.8470 -47.9170 43° Northeast 449 517 28,700 1,105 Climbing FlightAware ADS-B
Sun 12:08:14 PM -25.7890 -47.8550 44° Northeast 442 509 29,000 254 Climbing FlightAware ADS-B
Sun 12:08:46 PM -25.7390 -47.8030 43° Northeast 465 535 29,000  Level FlightAware ADS-B
Sun 12:09:22 PM -25.6820 -47.7440 43° Northeast 483 556 29,000  Level FlightAware ADS-B
Sun 12:10:04 PM -25.6120 -47.6700 44° Northeast 483 556 29,000  Level FlightAware ADS-B
Sun 12:10:43 PM -25.5500 -47.6060 43° Northeast 481 554 29,000  Level FlightAware ADS-B
Sun 12:11:20 PM -25.4900 -47.5430 43° Northeast 482 555 29,000  Level FlightAware ADS-B
Sun 12:12:22 PM -25.3880 -47.4380 43° Northeast 481 554 29,000  Level FlightAware ADS-B
Sun 12:13:02 PM -25.3250 -47.3710 44° Northeast 481 554 29,000  Level FlightAware ADS-B
Sun 12:13:54 PM -25.2280 -47.3040 32° Northeast 465 535 29,000  Level FlightAware ADS-B
Sun 12:14:34 PM -25.1500 -47.2680 23° Northeast 465 535 29,000  Level FlightAware ADS-B
Sun 12:15:15 PM -25.0670 -47.2290 23° Northeast 466 536 29,000 -293 Level FlightAware ADS-B
Sun 12:15:56 PM -24.9910 -47.1930 23° Northeast 451 519 28,600 -774 Descending FlightAware ADS-B
Sun 12:16:17 PM -24.9490 -47.1740 22° Northeast 440 506 28,200 -1,477 Descending FlightAware ADS-B
Sun 12:17:01 PM -24.8850 -47.1440 23° Northeast 435 501 27,000 -1,929 Descending FlightAware ADS-B
Sun 12:17:41 PM -24.8060 -47.1070 23° Northeast 428 493 25,500 -2,049 Descending FlightAware ADS-B
Sun 12:18:23 PM -24.7370 -47.0750 23° Northeast 423 487 24,200 -1,935 Descending FlightAware ADS-B
Sun 12:19:14 PM -24.6420 -47.0320 22° Northeast 417 480 22,500 -2,044 Descending FlightAware ADS-B
Sun 12:19:54 PM -24.5690 -46.9980 23° Northeast 415 478 21,100 -1,870 Descending FlightAware ADS-B
Sun 12:20:31 PM -24.5100 -46.9700 23° Northeast 416 479 20,100 -1,724 Descending FlightAware ADS-B
Sun 12:21:21 PM -24.4230 -46.9090 33° Northeast 411 473 18,600 -1,680 Descending FlightAware ADS-B
Sun 12:21:46 PM -24.3830 -46.8800 33° Northeast 400 460 18,000 -1,034 Descending FlightAware ADS-B
Sun 12:22:19 PM -24.3360 -46.8460 33° Northeast 379 436 17,600 -805 Descending FlightAware ADS-B
Sun 12:23:08 PM -24.2650 -46.7960 33° Northeast 348 400 16,900 -911 Descending FlightAware ADS-B
Sun 12:23:38 PM -24.2350 -46.7570 50° Northeast 342 394 16,400 -1,000 Descending FlightAware ADS-B
Sun 12:24:20 PM -24.2040 -46.6980 60° Northeast 337 388 15,700 -951 Descending FlightAware ADS-B
Sun 12:25:00 PM -24.1740 -46.6400 60° Northeast 328 377 15,100 -848 Descending FlightAware ADS-B
Sun 12:25:59 PM -24.1330 -46.5580 61° Northeast 306 352 14,300 -828 Descending FlightAware ADS-B
Sun 12:26:27 PM -24.1130 -46.5160 62° Northeast 303 349 13,900 -783 Descending FlightAware ADS-B
Sun 12:27:08 PM -24.0870 -46.4640 61° Northeast 301 346 13,400 -795 Descending FlightAware ADS-B
Sun 12:27:50 PM -24.0590 -46.4040 63° Northeast 299 344 12,800 -811 Descending FlightAware ADS-B
Sun 12:28:22 PM -24.0370 -46.3600 61° Northeast 295 339 12,400 -600 Descending FlightAware ADS-B
Sun 12:29:00 PM -23.9990 -46.3340 32° Northeast 256 295 12,100 -558 Descending FlightAware ADS-B
Sun 12:29:48 PM -23.9530 -46.3700 324° Northwest 220 253 11,600 -533 Descending FlightAware ADS-B
Sun 12:30:30 PM -23.9350 -46.4140 294° West 221 254 11,300 -514 Descending FlightAware ADS-B
Sun 12:30:58 PM -23.9240 -46.4430 293° West 221 254 11,000 -575 Descending FlightAware ADS-B
Sun 12:31:43 PM -23.9060 -46.4890 293° West 223 257 10,600 -750 Descending FlightAware ADS-B
Sun 12:32:26 PM -23.8850 -46.5330 298° West 222 255 9,900 -684 Descending FlightAware ADS-B
Sun 12:33:02 PM -23.8590 -46.5590 318° Northwest 226 260 9,700 -455 Descending FlightAware ADS-B
Sun 12:33:32 PM -23.8350 -46.5830 318° Northwest 226 260 9,400 -486 Descending FlightAware ADS-B
Sun 12:34:16 PM -23.8010 -46.6160 318° Northwest 225 259 9,100 -488 Descending FlightAware ADS-B
Sun 12:34:58 PM -23.7680 -46.6480 318° Northwest 221 254 8,700 -486 Descending FlightAware ADS-B
Sun 12:35:30 PM -23.7440 -46.6720 318° Northwest 219 252 8,500 -469 Descending FlightAware ADS-B
Sun 12:36:02 PM -23.7190 -46.6970 318° Northwest 222 255 8,200 -441 Descending FlightAware ADS-B
Sun 12:36:38 PM -23.6910 -46.7240 319° Northwest 223 257 8,000 -162 Descending FlightAware ADS-B
Sun 12:37:16 PM -23.6620 -46.7530 318° Northwest 224 258 8,000  Level FlightAware ADS-B
Sun 12:37:58 PM -23.6310 -46.7830 318° Northwest 206 237 8,000  Level FlightAware ADS-B
Sun 12:38:40 PM -23.6020 -46.8120 317° Northwest 205 236 8,000 -138 Level FlightAware ADS-B
Sun 12:39:25 PM -23.5670 -46.8370 327° Northwest 206 237 7,800 -800 Descending FlightAware ADS-B
Sun 12:40:10 PM -23.5270 -46.8580 334° Northwest 210 242 6,800 -1,367 Descending FlightAware ADS-B
Sun 12:40:44 PM -23.4950 -46.8480 16° North 213 245 6,000 -1,043 Descending FlightAware ADS-B
Sun 12:41:19 PM -23.4710 -46.8230 44° Northeast 220 253 5,600 -423 Descending FlightAware ADS-B
Sun 12:41:55 PM -23.4790 -46.7850 103° East 202 232 5,500 -94 Descending FlightAware ADS-B
Sun 12:42:23 PM -23.4850 -46.7620 106° East 200 230 5,500 -537 Level FlightAware ADS-B
Sun 12:43:02 PM -23.5130 -46.7350 139° Southeast 175 201 4,900 -845 Descending FlightAware ADS-B
Sun 12:43:34 PM -23.5330 -46.7220 149° Southeast 140 161 4,500 -686 Descending FlightAware ADS-B
Sun 12:44:12 PM -23.5510 -46.7090 146° Southeast 124 143 4,100 -615 Descending FlightAware ADS-B
Sun 12:44:52 PM -23.5710 -46.6950 147° Southeast 124 143 3,700 -615 Descending FlightAware ADS-B
Sun 12:45:30 PM -23.5890 -46.6830 149° Southeast 119 137 3,300 -649 Descending FlightAware ADS-B
Sun 12:46:06 PM -23.6070 -46.6700 147° Southeast 129 148 2,900 -656 Descending FlightAware ADS-B
Sun 12:46:34 PM -23.6180 -46.6620 146° Southeast 121 139 2,600 -643 Descending FlightAware ADS-B
Sun 12:47:24 PM -23.6190 -46.6450 94° East 118 136 -3,120 Descending FlightAware ADS-B
Sun 12:49:56 PM -23.6310 -46.6570 180° South  Level FlightAware ADS-B

Login

Don't have an account? Register now (free) for customized features, flight alerts, and more!